Impacts TAF Board
For situational awareness. Not to be used for flight planning purposes.
IDs:

KPIT - Pittsburgh Intl, PA, US

Issued at 0520 UTC 16 Oct 2018
Updated at 0746 UTC 16 Oct 2018
Potential Impact None Slight Moderate High
Time0651Z 16/08Z 16/09Z 16/10Z 16/11Z 16/12Z 16/13Z 16/14Z 16/15Z 16/16Z 16/17Z 16/18Z 16/19Z 16/20Z>>
Type OBS PRVL PRVL PRVL PRVL PRVL PRVL PRVL PRVL PRVL PRVL PRVL PRVL PRVL
VIS 10 >6 >6 >6 >6 >6 >6 >6 >6 >6 >6 >6 >6 >6
CIG 180 200 200 200 200 200 200 200 200 -- -- -- -- --
Cover BKN BKN BKN BKN BKN BKN BKN BKN BKN SKC SKC SKC SKC SKC
FltCat VFR VFR VFR VFR VFR VFR VFR VFR VFR VFR VFR VFR VFR VFR
WX -- -- -- -- -- -- -- -- -- -- -- -- -- --
WDir 270 300 300 300 300 300 300 300 300 270 270 270 270 270
WSpd 5 5 5 5 5 5 5 5 5 12 12 12 12 12
WGst -- -- -- -- -- -- -- -- -- 20 20 20 20 20
Raw TAF
KPIT 160520Z 1606/1712 30005KT P6SM BKN200
  FM161600 27012G20KT P6SM SKC
  FM170100 23006KT P6SM SKC


Raw METAR
KPIT 160651Z 27005KT 10SM FEW050 BKN180 05/03 A3021 RMK AO2 SLP240 T00500028 $
KPIT 160551Z 25004KT 10SM SCT180 BKN250 06/03 A3020 RMK AO2 SLP234 T00610033 10106 20061 50006 $
KPIT 160451Z 27005KT 10SM FEW028 SCT180 OVC240 07/04 A3020 RMK AO2 SLP235 T00670039 401780067 $

METAR Board
Radar Display
Forecast Discussion
For situational awareness. Not to be used for flight planning purposes.